Time;durP1;ratioP1;P1;durP2;ratioP2;P2;SDS_P1;SDS_P2;PMS_P1;PMS_P2;Temp;Humidity;BMP_temperature;BMP_pressure;BME280_temperature;BME280_humidity;BME280_pressure;Samples;Min_cycle;Max_cycle;Signal;HPM_P1;HPM_P2
2024/03/12 00:01:08;;;;;;;81.35;51.97;;;;;;;;;;5071546;28;20405;-75
2024/03/12 00:03:46;;;;;;;84.90;52.92;;;;;;;;;;5071342;28;20111;-76
2024/03/12 00:06:12;;;;;;;85.63;52.97;;;;;;;;;;5071817;28;20021;-76
2024/03/12 00:08:42;;;;;;;87.57;55.03;;;;;;;;;;5072087;28;20048;-75
2024/03/12 00:11:09;;;;;;;87.85;55.03;;;;;;;;;;5072495;28;20367;-76
2024/03/12 00:13:35;;;;;;;90.32;53.97;;;;;;;;;;5070988;28;20028;-75
2024/03/12 00:16:01;;;;;;;93.05;55.33;;;;;;;;;;5072970;28;20036;-74
2024/03/12 00:18:27;;;;;;;103.10;58.35;;;;;;;;;;5071428;28;20024;-75
2024/03/12 00:20:53;;;;;;;91.47;51.92;;;;;;;;;;5071010;28;20123;-75
2024/03/12 00:23:20;;;;;;;95.90;57.78;;;;;;;;;;5072369;28;20064;-76
2024/03/12 00:25:46;;;;;;;94.93;58.53;;;;;;;;;;5072190;28;20033;-76
2024/03/12 00:28:12;;;;;;;89.13;55.05;;;;;;;;;;5072819;28;20025;-76
2024/03/12 00:30:40;;;;;;;94.05;56.10;;;;;;;;;;5070762;28;20048;-76
2024/03/12 00:33:07;;;;;;;89.78;53.85;;;;;;;;;;5071165;28;20375;-76
2024/03/12 00:35:35;;;;;;;91.43;53.42;;;;;;;;;;5072858;28;20040;-75
2024/03/12 00:38:01;;;;;;;98.95;55.60;;;;;;;;;;5072319;28;20024;-75
2024/03/12 00:40:33;;;;;;;98.32;59.88;;;;;;;;;;5072203;28;20367;-75
2024/03/12 00:42:59;;;;;;;97.63;57.10;;;;;;;;;;5070798;28;20120;-75
2024/03/12 00:45:29;;;;;;;109.95;63.28;;;;;;;;;;5072179;28;20365;-75
2024/03/12 00:47:57;;;;;;;142.13;67.73;;;;;;;;;;5070746;28;20375;-75
2024/03/12 00:50:23;;;;;;;95.15;55.67;;;;;;;;;;5070799;28;20021;-77
2024/03/12 00:52:53;;;;;;;101.85;59.33;;;;;;;;;;5073813;28;20029;-76
2024/03/12 00:55:23;;;;;;;92.90;55.70;;;;;;;;;;5075009;28;20074;-76
2024/03/12 00:57:50;;;;;;;83.85;50.10;;;;;;;;;;5074941;28;20380;-76
2024/03/12 01:00:17;;;;;;;99.90;59.55;;;;;;;;;;5074943;28;20537;-76
2024/03/12 01:02:49;;;;;;;114.82;64.82;;;;;;;;;;5075648;28;20023;-76
2024/03/12 01:05:20;;;;;;;103.78;60.15;;;;;;;;;;5074754;28;20417;-74
2024/03/12 01:07:47;;;;;;;107.93;66.10;;;;;;;;;;5075794;28;20024;-75
2024/03/12 01:10:14;;;;;;;100.28;62.88;;;;;;;;;;5074609;28;20039;-75
2024/03/12 01:12:40;;;;;;;111.32;59.92;;;;;;;;;;5075634;28;20372;-74
2024/03/12 01:15:08;;;;;;;113.63;64.72;;;;;;;;;;5075492;28;20024;-75
2024/03/12 01:17:37;;;;;;;131.13;66.32;;;;;;;;;;5074393;28;20376;-75
2024/03/12 01:20:05;;;;;;;125.80;68.30;;;;;;;;;;5074383;28;20028;-76
2024/03/12 01:22:33;;;;;;;112.13;60.25;;;;;;;;;;5074190;28;20079;-76
2024/03/12 01:24:59;;;;;;;134.73;70.65;;;;;;;;;;5075465;28;20017;-76
2024/03/12 01:27:26;;;;;;;144.57;71.10;;;;;;;;;;5074333;28;20024;-76
2024/03/12 01:29:52;;;;;;;120.47;61.75;;;;;;;;;;5075557;28;20091;-76
2024/03/12 01:32:20;;;;;;;143.00;71.25;;;;;;;;;;5074499;28;20115;-74
2024/03/12 01:34:46;;;;;;;168.48;74.72;;;;;;;;;;5076583;28;20021;-74
2024/03/12 01:37:15;;;;;;;121.38;63.35;;;;;;;;;;5076201;28;20078;-74
2024/03/12 01:39:41;;;;;;;94.77;50.53;;;;;;;;;;5076007;28;20016;-74
2024/03/12 01:42:08;;;;;;;120.15;62.75;;;;;;;;;;5075395;28;20251;-75
2024/03/12 01:44:35;;;;;;;125.18;62.58;;;;;;;;;;5073931;28;20476;-77
2024/03/12 01:47:02;;;;;;;153.40;71.43;;;;;;;;;;5073625;28;20357;-76
2024/03/12 01:49:28;;;;;;;215.15;76.72;;;;;;;;;;5073834;28;20077;-75
2024/03/12 01:51:55;;;;;;;114.28;58.53;;;;;;;;;;5074824;28;20029;-76
2024/03/12 01:54:21;;;;;;;123.32;60.35;;;;;;;;;;5075081;28;20089;-75
2024/03/12 01:56:47;;;;;;;131.20;63.47;;;;;;;;;;5074552;28;20097;-75
2024/03/12 01:59:15;;;;;;;134.10;66.20;;;;;;;;;;5073656;28;20384;-77
2024/03/12 02:01:42;;;;;;;173.23;67.65;;;;;;;;;;5074740;28;20491;-75
2024/03/12 02:04:09;;;;;;;107.15;54.13;;;;;;;;;;5073439;28;20024;-75
2024/03/12 02:06:35;;;;;;;154.05;68.55;;;;;;;;;;5074736;28;20468;-73
2024/03/12 02:09:04;;;;;;;142.07;65.30;;;;;;;;;;5074605;28;20100;-73
2024/03/12 02:11:30;;;;;;;143.37;64.57;;;;;;;;;;5073065;28;20029;-75
2024/03/12 02:13:56;;;;;;;147.07;70.07;;;;;;;;;;5073246;28;20362;-74
2024/03/12 02:16:22;;;;;;;132.07;61.55;;;;;;;;;;5075002;28;20029;-74
2024/03/12 02:18:48;;;;;;;144.15;69.05;;;;;;;;;;5073153;28;20379;-74
2024/03/12 02:21:15;;;;;;;134.93;64.72;;;;;;;;;;5074645;28;20504;-75
2024/03/12 02:23:41;;;;;;;133.93;64.05;;;;;;;;;;5074425;28;20052;-74
2024/03/12 02:26:09;;;;;;;117.95;58.88;;;;;;;;;;5073298;28;20555;-74
2024/03/12 02:28:35;;;;;;;132.88;63.85;;;;;;;;;;5073169;28;20020;-74
2024/03/12 02:31:01;;;;;;;120.72;60.25;;;;;;;;;;5072881;28;20123;-74
2024/03/12 02:33:27;;;;;;;103.88;54.85;;;;;;;;;;5073116;28;20025;-73
2024/03/12 02:35:53;;;;;;;137.15;67.13;;;;;;;;;;5074148;28;20025;-74
2024/03/12 02:38:20;;;;;;;137.57;67.43;;;;;;;;;;5073058;28;20025;-74
2024/03/12 02:40:46;;;;;;;121.00;61.20;;;;;;;;;;5072686;28;20040;-74
2024/03/12 02:43:13;;;;;;;129.55;64.72;;;;;;;;;;5073020;28;20460;-75
2024/03/12 02:45:40;;;;;;;132.45;67.30;;;;;;;;;;5072617;28;20021;-75
2024/03/12 02:48:06;;;;;;;126.43;63.63;;;;;;;;;;5073969;28;20024;-75
2024/03/12 02:50:32;;;;;;;121.07;61.13;;;;;;;;;;5073679;28;20032;-73
2024/03/12 02:52:58;;;;;;;105.30;52.28;;;;;;;;;;5072460;28;20040;-75
2024/03/12 02:55:25;;;;;;;120.10;64.78;;;;;;;;;;5072689;28;20120;-75
2024/03/12 02:57:51;;;;;;;114.45;58.05;;;;;;;;;;5073704;28;20094;-76
2024/03/12 03:00:17;;;;;;;131.85;68.45;;;;;;;;;;5072621;28;20368;-76
2024/03/12 03:02:43;;;;;;;92.28;45.95;;;;;;;;;;5072339;28;20025;-76
2024/03/12 03:05:10;;;;;;;116.22;57.05;;;;;;;;;;5073999;28;20377;-74
2024/03/12 03:07:36;;;;;;;101.68;51.25;;;;;;;;;;5072380;28;20055;-74
2024/03/12 03:10:03;;;;;;;111.03;57.20;;;;;;;;;;5072018;28;20559;-75
2024/03/12 03:12:29;;;;;;;120.47;59.35;;;;;;;;;;5072363;28;20024;-74
2024/03/12 03:14:55;;;;;;;112.85;60.10;;;;;;;;;;5072475;28;20074;-74
2024/03/12 03:17:21;;;;;;;107.72;56.80;;;;;;;;;;5072273;28;20028;-76
2024/03/12 03:19:50;;;;;;;104.93;53.17;;;;;;;;;;5073271;28;20021;-75
2024/03/12 03:22:17;;;;;;;98.40;51.92;;;;;;;;;;5072021;28;20495;-75
2024/03/12 03:24:43;;;;;;;102.75;57.05;;;;;;;;;;5073861;28;20048;-75
2024/03/12 03:27:09;;;;;;;91.88;48.03;;;;;;;;;;5072077;28;20036;-74
2024/03/12 03:29:36;;;;;;;90.93;50.33;;;;;;;;;;5072493;28;20031;-74
2024/03/12 03:32:02;;;;;;;104.10;53.63;;;;;;;;;;5072150;28;20028;-73
2024/03/12 03:34:29;;;;;;;86.35;45.80;;;;;;;;;;5072969;28;20118;-74
2024/03/12 03:36:58;;;;;;;89.22;50.22;;;;;;;;;;5073763;28;20031;-73
2024/03/12 03:39:24;;;;;;;96.78;50.55;;;;;;;;;;5073498;28;20025;-75
2024/03/12 03:41:51;;;;;;;80.75;46.47;;;;;;;;;;5074084;28;20109;-75
2024/03/12 03:44:18;;;;;;;85.47;50.40;;;;;;;;;;5071862;28;20492;-74
2024/03/12 03:46:44;;;;;;;81.47;45.25;;;;;;;;;;5072934;28;20036;-74
2024/03/12 03:49:10;;;;;;;81.30;44.78;;;;;;;;;;5072424;28;20024;-75
2024/03/12 03:51:36;;;;;;;69.07;41.15;;;;;;;;;;5071272;28;20036;-73
2024/03/12 03:54:02;;;;;;;75.90;43.33;;;;;;;;;;5072333;28;20036;-74
2024/03/12 03:56:29;;;;;;;79.15;44.65;;;;;;;;;;5071438;28;20031;-74
2024/03/12 03:58:57;;;;;;;65.40;37.20;;;;;;;;;;5072237;28;20450;-74
2024/03/12 04:01:24;;;;;;;68.25;39.33;;;;;;;;;;5071342;28;20509;-73
2024/03/12 04:03:53;;;;;;;57.67;32.97;;;;;;;;;;5072365;28;20112;-75
2024/03/12 04:06:23;;;;;;;66.18;38.05;;;;;;;;;;5072932;28;20077;-74
2024/03/12 04:08:50;;;;;;;71.32;39.72;;;;;;;;;;5071365;28;20460;-74
2024/03/12 04:11:20;;;;;;;57.53;32.90;;;;;;;;;;5071178;28;20021;-74
2024/03/12 04:13:54;;;;;;;63.35;37.83;;;;;;;;;;5070974;28;20037;-73
2024/03/12 04:16:20;;;;;;;67.20;38.05;;;;;;;;;;5070992;28;20016;-73
2024/03/12 04:18:46;;;;;;;46.97;28.45;;;;;;;;;;5071256;28;20028;-74
2024/03/12 04:21:12;;;;;;;57.58;33.38;;;;;;;;;;5070933;28;20053;-74
2024/03/12 04:23:39;;;;;;;61.95;35.63;;;;;;;;;;5070888;28;20052;-74
2024/03/12 04:26:05;;;;;;;53.25;32.22;;;;;;;;;;5069988;28;20468;-73
2024/03/12 04:28:31;;;;;;;45.72;28.20;;;;;;;;;;5071040;28;20481;-75
2024/03/12 04:30:57;;;;;;;53.10;31.80;;;;;;;;;;5070733;28;20464;-74
2024/03/12 04:33:26;;;;;;;53.22;30.90;;;;;;;;;;5072031;28;20020;-74
2024/03/12 04:35:52;;;;;;;49.65;29.60;;;;;;;;;;5070601;28;20106;-75
2024/03/12 04:38:18;;;;;;;50.95;31.98;;;;;;;;;;5070989;28;20349;-76
2024/03/12 04:40:48;;;;;;;52.42;30.58;;;;;;;;;;5071929;28;20082;-75
2024/03/12 04:43:14;;;;;;;48.63;27.95;;;;;;;;;;5070721;28;20095;-74
2024/03/12 04:45:41;;;;;;;46.95;30.02;;;;;;;;;;5070610;28;20024;-75
2024/03/12 04:48:08;;;;;;;55.90;33.05;;;;;;;;;;5070357;28;20020;-73
2024/03/12 04:50:34;;;;;;;47.92;26.77;;;;;;;;;;5072131;28;20024;-76
2024/03/12 04:53:00;;;;;;;56.95;31.02;;;;;;;;;;5070483;28;20119;-77
2024/03/12 04:55:26;;;;;;;53.72;27.75;;;;;;;;;;5070770;28;20016;-76
2024/03/12 04:57:52;;;;;;;56.67;32.65;;;;;;;;;;5071543;28;20017;-74
2024/03/12 05:00:21;;;;;;;51.00;30.77;;;;;;;;;;5072143;28;20028;-75
2024/03/12 05:02:49;;;;;;;55.20;30.37;;;;;;;;;;5072044;28;20024;-74
2024/03/12 05:05:19;;;;;;;56.08;31.88;;;;;;;;;;5070403;28;20456;-74
2024/03/12 05:07:45;;;;;;;57.67;32.17;;;;;;;;;;5070642;28;20468;-75
2024/03/12 05:10:11;;;;;;;63.45;33.72;;;;;;;;;;5070299;28;20468;-75
2024/03/12 05:12:37;;;;;;;63.92;32.35;;;;;;;;;;5071692;28;20040;-74
2024/03/12 05:15:05;;;;;;;37.40;20.73;;;;;;;;;;5070424;28;20025;-74
2024/03/12 05:17:31;;;;;;;55.17;28.17;;;;;;;;;;5071694;28;20431;-74
2024/03/12 05:19:57;;;;;;;61.55;32.97;;;;;;;;;;5070372;28;20456;-74
2024/03/12 05:22:23;;;;;;;64.20;33.45;;;;;;;;;;5070353;28;20056;-75
2024/03/12 05:24:50;;;;;;;46.03;25.85;;;;;;;;;;5070424;28;20468;-74
2024/03/12 05:27:23;;;;;;;61.72;30.08;;;;;;;;;;5053505;28;20048;-76
2024/03/12 05:29:53;;;;;;;55.17;27.70;;;;;;;;;;5070377;28;20115;-73
2024/03/12 05:32:21;;;;;;;68.18;33.78;;;;;;;;;;5070485;28;20044;-73
2024/03/12 05:34:58;;;;;;;71.55;34.00;;;;;;;;;;5072153;28;20028;-74
2024/03/12 05:38:01;;;;;;;54.65;23.92;;;;;;;;;;5073422;28;20031;-73
2024/03/12 05:40:39;;;;;;;75.00;33.50;;;;;;;;;;5075033;28;20040;-74
2024/03/12 05:48:35;;;;;;;73.93;34.63;;;;;;;;;;5075255;28;20036;-74
2024/03/12 05:51:01;;;;;;;61.92;31.83;;;;;;;;;;5073529;28;20028;-74
2024/03/12 05:53:27;;;;;;;66.95;30.90;;;;;;;;;;5073755;28;20392;-74
2024/03/12 05:55:53;;;;;;;73.28;34.55;;;;;;;;;;5073822;28;20063;-74
2024/03/12 05:58:21;;;;;;;67.22;28.77;;;;;;;;;;5074706;28;20028;-74
2024/03/12 06:00:47;;;;;;;81.60;37.10;;;;;;;;;;5074703;28;20031;-74
2024/03/12 06:03:14;;;;;;;74.53;33.28;;;;;;;;;;5073430;28;20032;-73
2024/03/12 06:05:41;;;;;;;76.85;34.45;;;;;;;;;;5075094;28;20016;-73
2024/03/12 06:08:07;;;;;;;77.53;33.78;;;;;;;;;;5074678;28;20040;-73
2024/03/12 06:10:33;;;;;;;72.93;32.30;;;;;;;;;;5073401;28;20120;-74
2024/03/12 06:12:59;;;;;;;82.55;35.35;;;;;;;;;;5074605;28;20028;-74
2024/03/12 06:15:25;;;;;;;82.22;37.00;;;;;;;;;;5073420;28;20082;-75
2024/03/12 06:17:52;;;;;;;74.68;33.38;;;;;;;;;;5074746;28;20023;-75
2024/03/12 06:20:18;;;;;;;80.70;32.47;;;;;;;;;;5074409;28;20024;-74
2024/03/12 06:22:44;;;;;;;65.80;30.48;;;;;;;;;;5074272;28;20499;-74
2024/03/12 06:25:10;;;;;;;66.72;26.42;;;;;;;;;;5073031;28;20032;-74
2024/03/12 06:27:38;;;;;;;75.28;33.15;;;;;;;;;;5072804;28;20033;-74
2024/03/12 06:30:05;;;;;;;77.13;34.35;;;;;;;;;;5074103;28;20031;-74
2024/03/12 06:32:31;;;;;;;61.83;29.30;;;;;;;;;;5073101;28;20028;-74
2024/03/12 06:34:58;;;;;;;79.55;32.63;;;;;;;;;;5074183;28;20016;-75
2024/03/12 06:37:27;;;;;;;72.55;33.00;;;;;;;;;;5073173;28;20024;-75
2024/03/12 06:39:53;;;;;;;68.20;31.92;;;;;;;;;;5073763;28;20017;-75
2024/03/12 06:42:25;;;;;;;67.93;32.25;;;;;;;;;;5074308;28;20070;-74
2024/03/12 06:44:54;;;;;;;67.40;31.85;;;;;;;;;;5072758;28;20020;-72
2024/03/12 06:47:20;;;;;;;75.38;31.95;;;;;;;;;;5072624;28;20027;-73
2024/03/12 06:49:47;;;;;;;68.03;31.17;;;;;;;;;;5071705;28;20028;-74
2024/03/12 06:52:15;;;;;;;59.05;28.17;;;;;;;;;;5072343;28;20078;-74
2024/03/12 06:54:41;;;;;;;70.22;31.45;;;;;;;;;;5072660;28;20055;-74
2024/03/12 06:57:09;;;;;;;72.70;31.45;;;;;;;;;;5073642;28;20467;-75
2024/03/12 06:59:36;;;;;;;71.72;33.67;;;;;;;;;;5073956;28;20021;-74
2024/03/12 07:02:02;;;;;;;64.55;31.20;;;;;;;;;;5073417;28;20103;-73
2024/03/12 07:04:46;;;;;;;67.68;30.20;;;;;;;;;;5073734;28;20024;-75
2024/03/12 07:07:18;;;;;;;64.80;30.55;;;;;;;;;;5072210;28;20031;-75
2024/03/12 07:09:44;;;;;;;61.03;26.67;;;;;;;;;;5072293;28;20480;-74
2024/03/12 07:12:10;;;;;;;66.57;30.83;;;;;;;;;;5073176;28;20032;-74
2024/03/12 07:14:45;;;;;;;66.45;30.75;;;;;;;;;;5073407;28;20491;-73
2024/03/12 07:17:11;;;;;;;68.30;31.02;;;;;;;;;;5073276;28;20115;-74
2024/03/12 07:19:40;;;;;;;53.28;25.88;;;;;;;;;;5073338;28;20488;-75
2024/03/12 07:22:07;;;;;;;53.53;27.23;;;;;;;;;;5071496;28;20052;-75
2024/03/12 07:24:36;;;;;;;66.25;30.80;;;;;;;;;;5072068;28;20090;-75
2024/03/12 07:27:05;;;;;;;53.80;24.13;;;;;;;;;;5071711;28;20031;-75
2024/03/12 07:29:34;;;;;;;56.83;26.33;;;;;;;;;;5071907;28;20021;-76
2024/03/12 07:32:03;;;;;;;60.50;31.13;;;;;;;;;;5071676;28;20038;-75
2024/03/12 07:34:30;;;;;;;57.13;27.92;;;;;;;;;;5071838;28;20115;-74
2024/03/12 07:36:58;;;;;;;52.95;25.20;;;;;;;;;;5071736;28;20412;-75
2024/03/12 07:39:31;;;;;;;59.90;28.98;;;;;;;;;;5071373;28;20065;-74
2024/03/12 07:41:58;;;;;;;56.58;28.13;;;;;;;;;;5072737;28;20025;-74
2024/03/12 07:44:24;;;;;;;63.05;29.75;;;;;;;;;;5071307;28;20032;-74
2024/03/12 07:46:50;;;;;;;52.38;27.38;;;;;;;;;;5072693;28;20388;-75
2024/03/12 07:49:21;;;;;;;56.97;27.35;;;;;;;;;;5072411;28;20193;-75
2024/03/12 07:51:49;;;;;;;55.13;26.58;;;;;;;;;;5071225;28;20025;-74
2024/03/12 07:54:15;;;;;;;57.53;25.80;;;;;;;;;;5072576;28;20024;-73
2024/03/12 07:56:41;;;;;;;49.60;25.48;;;;;;;;;;5071507;28;20479;-74
2024/03/12 07:59:07;;;;;;;68.75;31.80;;;;;;;;;;5072993;28;20023;-75
2024/03/12 08:01:34;;;;;;;64.32;30.90;;;;;;;;;;5071447;28;20036;-74
2024/03/12 08:04:03;;;;;;;54.78;27.40;;;;;;;;;;5071596;28;20020;-75
2024/03/12 08:06:29;;;;;;;56.67;27.58;;;;;;;;;;5071449;28;20031;-74
2024/03/12 08:08:55;;;;;;;62.25;29.00;;;;;;;;;;5066201;28;20459;-74
2024/03/12 08:11:21;;;;;;;62.85;29.95;;;;;;;;;;5061322;28;20477;-75
2024/03/12 08:13:48;;;;;;;55.53;26.58;;;;;;;;;;5060141;28;20020;-75
2024/03/12 08:16:15;;;;;;;58.28;27.42;;;;;;;;;;5060350;28;20025;-74
2024/03/12 08:18:42;;;;;;;58.63;26.80;;;;;;;;;;5059880;28;20543;-74
2024/03/12 08:21:11;;;;;;;59.78;30.88;;;;;;;;;;5060756;28;20025;-74
2024/03/12 08:23:37;;;;;;;61.58;29.67;;;;;;;;;;5061796;28;20037;-75
2024/03/12 08:26:04;;;;;;;61.55;29.02;;;;;;;;;;5061559;28;20031;-74
2024/03/12 08:28:31;;;;;;;69.10;32.63;;;;;;;;;;5052285;28;20017;-77
2024/03/12 08:30:57;;;;;;;59.22;26.88;;;;;;;;;;5052249;28;20036;-75
2024/03/12 08:33:24;;;;;;;60.38;30.15;;;;;;;;;;5050707;28;20029;-75
2024/03/12 08:35:50;;;;;;;57.38;27.52;;;;;;;;;;5050860;28;20036;-75
2024/03/12 08:38:16;;;;;;;55.42;31.05;;;;;;;;;;5050591;28;20047;-74
2024/03/12 08:40:42;;;;;;;62.25;31.25;;;;;;;;;;5052011;28;20107;-75
2024/03/12 08:43:09;;;;;;;63.10;29.10;;;;;;;;;;5050534;28;20036;-75
2024/03/12 08:45:35;;;;;;;51.22;24.15;;;;;;;;;;5056963;28;20029;-75
2024/03/12 08:48:03;;;;;;;65.75;28.88;;;;;;;;;;5060208;28;20020;-75
2024/03/12 08:50:29;;;;;;;56.88;28.35;;;;;;;;;;5061381;28;20059;-76
2024/03/12 08:52:57;;;;;;;55.95;25.42;;;;;;;;;;5060762;28;20048;-76
2024/03/12 08:55:23;;;;;;;53.72;27.55;;;;;;;;;;5060791;28;20025;-76
2024/03/12 08:57:51;;;;;;;54.90;28.65;;;;;;;;;;5059000;28;20028;-77
2024/03/12 09:00:18;;;;;;;57.60;28.02;;;;;;;;;;5050538;28;20079;-76
2024/03/12 09:02:45;;;;;;;64.30;28.50;;;;;;;;;;5050658;28;20119;-76
2024/03/12 09:05:12;;;;;;;60.70;29.63;;;;;;;;;;5051765;28;20028;-76
2024/03/12 09:07:38;;;;;;;66.72;32.20;;;;;;;;;;5050669;28;20112;-75
2024/03/12 09:10:12;;;;;;;60.72;28.77;;;;;;;;;;5050564;28;20393;-76
2024/03/12 09:12:38;;;;;;;56.45;30.42;;;;;;;;;;5052071;28;20342;-76
2024/03/12 09:15:08;;;;;;;56.65;29.92;;;;;;;;;;5054558;28;20059;-75
2024/03/12 09:17:34;;;;;;;60.78;30.55;;;;;;;;;;5054516;28;20131;-75
2024/03/12 09:20:00;;;;;;;55.22;28.00;;;;;;;;;;5055803;28;20029;-78
2024/03/12 09:22:28;;;;;;;56.15;29.58;;;;;;;;;;5054049;28;20443;-76
2024/03/12 09:24:54;;;;;;;61.90;33.97;;;;;;;;;;5054435;28;20087;-74
2024/03/12 09:27:20;;;;;;;58.33;27.67;;;;;;;;;;5055448;28;20510;-75
2024/03/12 09:29:47;;;;;;;49.83;26.60;;;;;;;;;;5054292;28;20048;-74
2024/03/12 09:32:13;;;;;;;59.58;31.70;;;;;;;;;;5055353;28;20025;-75
2024/03/12 09:34:40;;;;;;;59.35;29.95;;;;;;;;;;5055510;28;20029;-74
2024/03/12 09:37:06;;;;;;;62.58;32.90;;;;;;;;;;5053811;28;20044;-74
2024/03/12 09:39:34;;;;;;;62.10;31.10;;;;;;;;;;5053762;28;20101;-74
2024/03/12 09:42:01;;;;;;;49.05;26.98;;;;;;;;;;5055622;28;20029;-73
2024/03/12 09:44:27;;;;;;;62.40;29.63;;;;;;;;;;5055354;28;20032;-75
2024/03/12 09:46:54;;;;;;;46.38;26.27;;;;;;;;;;5055308;28;20017;-74
2024/03/12 09:49:20;;;;;;;49.65;26.63;;;;;;;;;;5053709;28;20048;-74
2024/03/12 09:51:46;;;;;;;45.38;24.05;;;;;;;;;;5055220;28;20448;-72
2024/03/12 09:54:13;;;;;;;54.83;28.75;;;;;;;;;;5054930;28;20025;-74
2024/03/12 09:56:40;;;;;;;53.78;28.90;;;;;;;;;;5055083;28;20457;-75
2024/03/12 09:59:08;;;;;;;41.10;23.27;;;;;;;;;;5053498;28;20025;-75
2024/03/12 10:01:34;;;;;;;53.88;26.95;;;;;;;;;;5053231;28;20044;-75
2024/03/12 10:04:00;;;;;;;44.92;23.98;;;;;;;;;;5053390;28;20033;-75
2024/03/12 10:06:28;;;;;;;44.70;24.73;;;;;;;;;;5054681;28;20070;-74
2024/03/12 10:08:58;;;;;;;41.95;20.67;;;;;;;;;;5053411;28;20024;-74
2024/03/12 10:11:24;;;;;;;47.85;25.15;;;;;;;;;;5053176;28;20400;-74
2024/03/12 10:13:55;;;;;;;39.70;22.77;;;;;;;;;;5054846;28;20103;-74
2024/03/12 10:16:24;;;;;;;46.42;25.85;;;;;;;;;;5053303;28;20017;-75
2024/03/12 10:19:05;;;;;;;43.75;23.65;;;;;;;;;;5054996;28;20022;-75
2024/03/12 10:21:31;;;;;;;49.45;25.10;;;;;;;;;;5055343;28;20044;-75
2024/03/12 10:24:10;;;;;;;42.20;23.25;;;;;;;;;;5053395;28;20523;-74
2024/03/12 10:26:36;;;;;;;46.33;25.77;;;;;;;;;;5052722;28;20120;-74
2024/03/12 10:29:12;;;;;;;47.00;26.33;;;;;;;;;;5054255;28;20029;-74
2024/03/12 10:31:43;;;;;;;40.92;25.30;;;;;;;;;;5052809;28;20127;-74
2024/03/12 10:34:10;;;;;;;48.53;26.77;;;;;;;;;;5052844;28;20017;-75
2024/03/12 10:36:42;;;;;;;49.95;27.48;;;;;;;;;;5052606;28;20086;-75
2024/03/12 10:39:12;;;;;;;45.38;27.05;;;;;;;;;;5052800;28;20107;-73
2024/03/12 10:41:38;;;;;;;;;;;;;;;;;;5053079;28;20032;-75
2024/03/12 10:44:10;;;;;;;50.63;23.70;;;;;;;;;;5053945;28;19909;-75
2024/03/12 10:46:39;;;;;;;44.35;26.33;;;;;;;;;;5052088;28;20025;-76
2024/03/12 10:49:09;;;;;;;46.15;26.40;;;;;;;;;;5052525;28;20545;-76
2024/03/12 10:51:36;;;;;;;36.55;21.83;;;;;;;;;;5053477;28;20116;-76
2024/03/12 10:54:04;;;;;;;48.78;25.02;;;;;;;;;;5052332;28;20029;-75
2024/03/12 10:56:31;;;;;;;39.45;22.67;;;;;;;;;;5053808;28;20108;-76
2024/03/12 10:58:57;;;;;;;36.13;21.92;;;;;;;;;;5052543;28;20025;-76
2024/03/12 11:01:24;;;;;;;40.90;24.25;;;;;;;;;;5053617;28;20044;-76
2024/03/12 11:03:58;;;;;;;40.20;25.40;;;;;;;;;;5052547;28;20028;-76
2024/03/12 11:06:26;;;;;;;41.15;22.98;;;;;;;;;;5052199;28;20025;-76
2024/03/12 11:08:52;;;;;;;41.53;23.98;;;;;;;;;;5053413;28;20017;-76
2024/03/12 11:11:21;;;;;;;44.53;27.42;;;;;;;;;;5053367;28;20118;-75
2024/03/12 11:13:50;;;;;;;36.72;21.73;;;;;;;;;;5052288;28;20017;-74
2024/03/12 11:16:17;;;;;;;45.90;25.70;;;;;;;;;;5051967;28;20047;-74
2024/03/12 11:18:44;;;;;;;43.28;25.65;;;;;;;;;;5053476;28;20025;-74
2024/03/12 11:21:17;;;;;;;41.38;25.63;;;;;;;;;;5053349;28;20111;-74
2024/03/12 11:23:45;;;;;;;45.35;25.48;;;;;;;;;;5051692;28;20051;-74
2024/03/12 11:26:14;;;;;;;39.85;25.13;;;;;;;;;;5051958;28;20503;-75
2024/03/12 11:28:50;;;;;;;39.35;24.85;;;;;;;;;;5051905;28;20106;-76
2024/03/12 11:31:19;;;;;;;42.33;23.63;;;;;;;;;;5051584;28;20029;-74
2024/03/12 11:33:49;;;;;;;38.70;22.83;;;;;;;;;;5051893;28;20110;-74
2024/03/12 11:36:17;;;;;;;43.30;25.40;;;;;;;;;;5052623;28;20098;-73
2024/03/12 11:38:45;;;;;;;45.97;26.95;;;;;;;;;;5051734;28;20025;-74
2024/03/12 11:41:16;;;;;;;45.92;25.60;;;;;;;;;;5051714;28;20035;-75
2024/03/12 11:43:43;;;;;;;45.95;26.67;;;;;;;;;;5051920;28;20373;-75
2024/03/12 11:46:10;;;;;;;46.80;27.67;;;;;;;;;;5052945;28;20021;-75
2024/03/12 11:48:37;;;;;;;47.55;28.80;;;;;;;;;;5052574;28;20021;-74
2024/03/12 11:51:04;;;;;;;49.00;28.00;;;;;;;;;;5051416;28;20476;-75
2024/03/12 11:53:35;;;;;;;48.33;28.35;;;;;;;;;;5052558;28;20028;-74
2024/03/12 11:56:10;;;;;;;43.30;27.85;;;;;;;;;;5051442;28;20071;-74
2024/03/12 11:58:52;;;;;;;43.28;27.80;;;;;;;;;;5051152;28;20480;-74
2024/03/12 12:01:19;;;;;;;47.35;28.60;;;;;;;;;;5052423;28;20025;-75
2024/03/12 12:03:49;;;;;;;47.50;28.92;;;;;;;;;;5051235;28;20488;-74
2024/03/12 12:06:19;;;;;;;44.77;28.67;;;;;;;;;;5051394;28;20028;-74
2024/03/12 12:08:45;;;;;;;47.05;28.35;;;;;;;;;;5051243;28;20113;-74
2024/03/12 12:11:16;;;;;;;50.28;28.70;;;;;;;;;;5052253;28;20036;-74
2024/03/12 12:13:42;;;;;;;47.83;27.92;;;;;;;;;;5051031;28;20466;-74
2024/03/12 12:16:14;;;;;;;40.47;26.38;;;;;;;;;;5052646;28;20025;-74
2024/03/12 12:18:40;;;;;;;46.38;27.65;;;;;;;;;;5050956;28;20021;-73
2024/03/12 12:21:14;;;;;;;43.72;26.17;;;;;;;;;;5051122;28;20063;-74
2024/03/12 12:23:43;;;;;;;42.90;26.48;;;;;;;;;;5051694;28;20460;-76
2024/03/12 12:26:12;;;;;;;37.45;25.02;;;;;;;;;;5050981;28;20031;-75
2024/03/12 12:28:38;;;;;;;42.65;27.05;;;;;;;;;;5050646;28;20400;-75
2024/03/12 12:31:05;;;;;;;40.78;26.10;;;;;;;;;;5050720;28;20094;-75
2024/03/12 12:33:38;;;;;;;45.85;26.35;;;;;;;;;;5052080;28;20074;-74
2024/03/12 12:36:05;;;;;;;36.35;22.77;;;;;;;;;;5051485;28;20157;-74
2024/03/12 12:38:32;;;;;;;39.80;26.42;;;;;;;;;;5052478;28;20029;-73
2024/03/12 12:41:00;;;;;;;49.97;27.17;;;;;;;;;;5050732;28;20040;-74
2024/03/12 12:43:26;;;;;;;38.38;24.60;;;;;;;;;;5051832;28;20021;-74
2024/03/12 12:45:56;;;;;;;39.47;24.30;;;;;;;;;;5050408;28;20021;-76
2024/03/12 12:48:27;;;;;;;39.38;26.20;;;;;;;;;;5051016;28;20032;-74
2024/03/12 12:50:54;;;;;;;41.33;26.30;;;;;;;;;;5051957;28;20025;-74
2024/03/12 12:53:21;;;;;;;37.63;23.13;;;;;;;;;;5052037;28;20032;-75
2024/03/12 12:55:55;;;;;;;37.67;24.15;;;;;;;;;;5052095;28;20025;-74
2024/03/12 12:58:23;;;;;;;41.65;26.38;;;;;;;;;;5051884;28;20027;-75
2024/03/12 13:00:59;;;;;;;45.55;27.02;;;;;;;;;;5051660;28;20032;-74
2024/03/12 13:03:25;;;;;;;44.83;27.17;;;;;;;;;;5050406;28;20047;-74
2024/03/12 13:05:53;;;;;;;48.30;30.30;;;;;;;;;;5051992;28;20032;-74
2024/03/12 13:08:32;;;;;;;45.22;29.27;;;;;;;;;;5050553;28;20025;-73
2024/03/12 13:11:05;;;;;;;43.13;26.85;;;;;;;;;;5050512;28;20025;-75
2024/03/12 13:13:31;;;;;;;46.45;27.60;;;;;;;;;;5051898;28;20032;-75
2024/03/12 13:16:08;;;;;;;55.92;30.35;;;;;;;;;;5050346;28;20057;-74
2024/03/12 13:18:35;;;;;;;52.80;30.80;;;;;;;;;;5050223;28;20114;-75
2024/03/12 13:21:01;;;;;;;59.78;33.25;;;;;;;;;;5052212;28;20079;-74
2024/03/12 13:23:30;;;;;;;55.78;30.80;;;;;;;;;;5049796;28;20140;-74
2024/03/12 13:25:56;;;;;;;55.50;29.65;;;;;;;;;;5051669;28;20025;-74
2024/03/12 13:28:22;;;;;;;51.33;29.95;;;;;;;;;;5051631;28;20021;-74
2024/03/12 13:30:53;;;;;;;49.35;31.73;;;;;;;;;;5051564;28;20470;-74
2024/03/12 13:33:19;;;;;;;50.58;31.15;;;;;;;;;;5051339;28;20396;-75
2024/03/12 13:35:45;;;;;;;63.40;35.78;;;;;;;;;;5049731;28;20028;-74
2024/03/12 13:38:14;;;;;;;50.42;33.22;;;;;;;;;;5051328;28;20055;-75
2024/03/12 13:40:43;;;;;;;61.28;33.10;;;;;;;;;;5049525;28;20021;-75
2024/03/12 13:43:11;;;;;;;47.35;30.45;;;;;;;;;;5049948;28;20029;-74
2024/03/12 13:45:40;;;;;;;58.90;34.63;;;;;;;;;;5050981;28;20074;-74
2024/03/12 13:48:11;;;;;;;53.40;32.20;;;;;;;;;;5051483;28;20512;-75
2024/03/12 13:50:38;;;;;;;50.80;31.02;;;;;;;;;;5049758;28;20025;-74
2024/03/12 13:53:04;;;;;;;52.33;32.63;;;;;;;;;;5051364;28;20029;-75
2024/03/12 13:55:30;;;;;;;60.45;35.83;;;;;;;;;;5049772;28;20036;-74
2024/03/12 13:57:56;;;;;;;50.65;30.20;;;;;;;;;;5051679;28;20365;-76
2024/03/12 14:00:26;;;;;;;50.58;31.52;;;;;;;;;;5053598;28;20029;-74
2024/03/12 14:02:53;;;;;;;49.65;31.58;;;;;;;;;;5053562;28;20047;-74
2024/03/12 14:05:20;;;;;;;51.15;31.23;;;;;;;;;;5055151;28;20102;-75
2024/03/12 14:07:47;;;;;;;48.63;31.98;;;;;;;;;;5053284;28;20029;-75
2024/03/12 14:10:13;;;;;;;52.72;31.75;;;;;;;;;;5054853;28;20017;-74
2024/03/12 14:12:40;;;;;;;48.22;30.08;;;;;;;;;;5053014;28;20036;-75
2024/03/12 14:15:06;;;;;;;41.90;26.23;;;;;;;;;;5054720;28;20461;-75
2024/03/12 14:17:32;;;;;;;54.83;32.47;;;;;;;;;;5053149;28;20107;-74
2024/03/12 14:19:58;;;;;;;56.95;32.53;;;;;;;;;;5054708;28;20021;-75
2024/03/12 14:22:25;;;;;;;53.83;33.38;;;;;;;;;;5053034;28;20062;-74
2024/03/12 14:24:51;;;;;;;47.15;28.25;;;;;;;;;;5053059;28;20025;-74